Time;durP1;ratioP1;P1;durP2;ratioP2;P2;SDS_P1;SDS_P2;PMS_P1;PMS_P2;Temp;Humidity;BMP_temperature;BMP_pressure;BME280_temperature;BME280_humidity;BME280_pressure;Samples;Min_cycle;Max_cycle;Signal;HPM_P1;HPM_P2
2022/08/22 00:01:31;;;;;;;;;;;17.20;99.90;;;;;;5053159;28;19955;-74
2022/08/22 00:03:57;;;;;;;;;;;17.20;99.90;;;;;;5044950;28;19940;-74
2022/08/22 00:06:43;;;;;;;;;;;17.20;99.90;;;;;;5053926;28;19936;-74
2022/08/22 00:09:28;;;;;;;;;;;17.20;99.90;;;;;;5026489;28;20334;-75
2022/08/22 00:12:12;;;;;;;;;;;17.10;99.90;;;;;;5039135;28;20212;-74
2022/08/22 00:14:42;;;;;;;;;;;17.20;99.90;;;;;;5038713;28;19920;-75
2022/08/22 00:17:21;;;;;;;;;;;17.20;99.90;;;;;;5056543;28;20335;-74
2022/08/22 00:19:47;;;;;;;;;;;17.20;99.90;;;;;;5031105;28;19913;-74
2022/08/22 00:22:18;;;;;;;;;;;17.20;99.90;;;;;;5053663;28;19921;-74
2022/08/22 00:24:44;;;;;;;;;;;17.10;99.90;;;;;;5056366;28;19913;-74
2022/08/22 00:27:16;;;;;;;;;;;17.10;99.90;;;;;;5054833;28;19999;-74
2022/08/22 00:29:48;;;;;;;;;;;17.10;99.90;;;;;;5049688;28;19909;-75
2022/08/22 00:32:23;;;;;;;;;;;17.10;99.90;;;;;;5039067;28;20232;-74
2022/08/22 00:35:13;;;;;;;;;;;17.10;99.90;;;;;;5055953;28;19928;-74
2022/08/22 00:37:41;;;;;;;;;;;17.10;99.90;;;;;;5055580;28;19916;-74
2022/08/22 00:40:13;;;;;;;;;;;17.10;99.90;;;;;;5055807;28;20003;-74
2022/08/22 00:43:14;;;;;;;;;;;17.10;99.90;;;;;;5054972;28;20338;-74
2022/08/22 00:45:39;;;;;;;;;;;17.00;99.90;;;;;;5000580;28;19918;-74
2022/08/22 00:48:25;;;;;;;;;;;17.00;99.90;;;;;;5046902;28;20307;-75
2022/08/22 00:51:10;;;;;;;;;;;17.00;99.90;;;;;;5054635;28;19916;-75
2022/08/22 00:53:45;;;;;;;;;;;17.00;99.90;;;;;;5054229;28;19952;-74
2022/08/22 00:56:13;;;;;;;;;;;17.00;99.90;;;;;;5055456;28;19913;-75
2022/08/22 00:58:58;;;;;;;;;;;17.00;99.90;;;;;;5055700;28;19912;-74
2022/08/22 01:01:33;;;;;;;;;;;17.10;99.90;;;;;;5054608;28;19920;-74
2022/08/22 01:04:01;;;;;;;;;;;17.00;99.90;;;;;;5037719;28;19960;-74
2022/08/22 01:06:57;;;;;;;;;;;17.10;99.90;;;;;;5036122;28;19919;-75
2022/08/22 01:09:25;;;;;;;;;;;17.10;99.90;;;;;;5022329;28;19917;-74
2022/08/22 01:11:51;;;;;;;;;;;17.10;99.90;;;;;;5033968;28;20326;-74
2022/08/22 01:14:34;;;;;;;;;;;17.00;99.90;;;;;;5017739;28;19967;-75
2022/08/22 01:17:00;;;;;;;;;;;17.10;99.90;;;;;;5025180;28;19917;-75
2022/08/22 01:19:32;;;;;;;;;;;17.10;99.90;;;;;;5017535;28;20339;-74
2022/08/22 01:21:57;;;;;;;;;;;17.00;99.90;;;;;;5018517;28;19956;-74
2022/08/22 01:24:29;;;;;;;;;;;16.90;99.90;;;;;;5034049;28;20267;-74
2022/08/22 01:26:57;;;;;;;;;;;16.90;99.90;;;;;;5007948;28;19914;-75
2022/08/22 01:29:23;;;;;;;;;;;16.90;99.90;;;;;;5020293;28;19933;-74
2022/08/22 01:32:20;;;;;;;;;;;16.90;99.90;;;;;;5034678;28;20320;-74
2022/08/22 01:35:04;;;;;;;;;;;16.90;99.90;;;;;;5013483;28;19963;-75
2022/08/22 01:37:38;;;;;;;;;;;16.80;99.90;;;;;;5034071;28;19932;-74
2022/08/22 01:40:04;;;;;;;;;;;16.80;99.90;;;;;;5035348;28;19914;-75
2022/08/22 01:42:29;;;;;;;;;;;16.80;99.90;;;;;;5034852;28;19913;-74
2022/08/22 01:44:58;;;;;;;;;;;16.80;99.90;;;;;;5017350;28;19952;-74
2022/08/22 01:47:49;;;;;;;;;;;16.70;99.90;;;;;;5034453;28;19979;-74
2022/08/22 01:50:23;;;;;;;;;;;16.70;99.90;;;;;;5003601;28;20297;-74
2022/08/22 01:53:00;;;;;;;;;;;16.60;99.90;;;;;;5034615;28;20251;-75
2022/08/22 01:55:32;;;;;;;;;;;16.50;99.90;;;;;;5017048;28;19913;-74
2022/08/22 01:57:59;;;;;;;;;;;16.50;99.90;;;;;;5017429;28;19946;-74
2022/08/22 02:00:26;;;;;;;;;;;16.50;99.90;;;;;;5031400;28;19913;-74
2022/08/22 02:03:12;;;;;;;;;;;16.50;99.90;;;;;;5037777;28;19999;-74
2022/08/22 02:06:07;;;;;;;;;;;16.50;99.90;;;;;;5034441;28;20103;-74
2022/08/22 02:08:51;;;;;;;;;;;16.50;99.90;;;;;;5020408;28;19921;-74
2022/08/22 02:11:33;;;;;;;;;;;16.50;99.90;;;;;;5047258;28;19994;-74
2022/08/22 02:14:02;;;;;;;;;;;16.40;99.90;;;;;;5045585;28;19985;-74
2022/08/22 02:16:34;;;;;;;;;;;16.40;99.90;;;;;;5054683;28;19919;-75
2022/08/22 02:19:22;;;;;;;;;;;16.40;99.90;;;;;;5046025;28;19967;-75
2022/08/22 02:21:54;;;;;;;;;;;16.30;99.90;;;;;;5003865;28;19917;-75
2022/08/22 02:24:32;;;;;;;;;;;16.30;99.90;;;;;;5020053;28;19921;-74
2022/08/22 02:27:03;;;;;;;;;;;16.10;99.90;;;;;;5033351;28;19917;-75
2022/08/22 02:29:44;;;;;;;;;;;16.10;99.90;;;;;;5033551;28;19917;-74
2022/08/22 02:32:34;;;;;;;;;;;16.20;99.90;;;;;;5033521;28;19923;-74
2022/08/22 02:35:04;;;;;;;;;;;16.10;99.90;;;;;;5029897;28;20213;-74
2022/08/22 02:37:32;;;;;;;;;;;16.00;99.90;;;;;;5006305;28;19940;-74
2022/08/22 02:40:07;;;;;;;;;;;16.10;99.90;;;;;;5031857;28;19913;-74
2022/08/22 02:42:40;;;;;;;;;;;16.10;99.90;;;;;;5033129;28;20388;-75
2022/08/22 02:45:18;;;;;;;;;;;16.10;99.90;;;;;;5048608;28;19917;-74
2022/08/22 02:47:59;;;;;;;;;;;16.10;99.90;;;;;;5033927;28;19916;-74
2022/08/22 02:50:32;;;;;;;;;;;16.00;99.90;;;;;;5014942;28;19921;-74
2022/08/22 02:53:01;;;;;;;;;;;16.00;99.90;;;;;;5033667;28;19917;-74
2022/08/22 02:55:45;;;;;;;;;;;15.90;99.90;;;;;;5033225;28;20317;-75
2022/08/22 02:58:10;;;;;;;;;;;16.00;99.90;;;;;;5012253;28;19913;-74
2022/08/22 03:00:55;;;;;;;;;;;16.00;99.90;;;;;;5014046;28;20415;-74
2022/08/22 03:03:26;;;;;;;;;;;15.90;99.90;;;;;;5034365;28;20366;-74
2022/08/22 03:05:57;;;;;;;;;;;16.00;99.90;;;;;;5035704;28;19943;-74
2022/08/22 03:08:22;;;;;;;;;;;15.90;99.90;;;;;;5052944;28;19923;-74
2022/08/22 03:10:55;;;;;;;;;;;15.90;99.90;;;;;;5051359;28;19999;-74
2022/08/22 03:13:39;;;;;;;;;;;16.00;99.90;;;;;;5035193;28;19917;-74
2022/08/22 03:16:25;;;;;;;;;;;16.00;99.90;;;;;;5053502;28;20245;-74
2022/08/22 03:19:06;;;;;;;;;;;16.10;99.90;;;;;;5020308;28;19916;-75
2022/08/22 03:21:39;;;;;;;;;;;16.10;99.90;;;;;;5039399;28;19909;-74
2022/08/22 03:24:19;;;;;;;;;;;16.00;99.90;;;;;;5056544;28;20000;-74
2022/08/22 03:26:56;;;;;;;;;;;16.00;99.90;;;;;;5054579;28;19924;-75
2022/08/22 03:29:28;;;;;;;;;;;16.10;99.90;;;;;;5037436;28;20262;-74
2022/08/22 03:32:02;;;;;;;;;;;16.10;99.90;;;;;;5025972;28;19917;-75
2022/08/22 03:34:28;;;;;;;;;;;16.10;99.90;;;;;;5039005;28;19958;-74
2022/08/22 03:37:06;;;;;;;;;;;16.20;99.90;;;;;;5055439;28;20315;-74
2022/08/22 03:39:43;;;;;;;;;;;16.20;99.90;;;;;;5037945;28;20228;-74
2022/08/22 03:42:15;;;;;;;;;;;16.30;99.90;;;;;;5055564;28;19921;-73
2022/08/22 03:44:49;;;;;;;;;;;16.30;99.90;;;;;;5055555;28;19924;-74
2022/08/22 03:47:29;;;;;;;;;;;16.30;99.90;;;;;;5069421;28;19966;-74
2022/08/22 03:49:58;;;;;;;;;;;16.30;99.90;;;;;;5051626;28;19921;-74
2022/08/22 03:55:47;;;;;;;;;;;16.20;99.90;;;;;;4994288;28;19933;-74
2022/08/22 03:58:31;;;;;;;;;;;16.30;99.90;;;;;;4995407;28;19910;-75
2022/08/22 04:01:12;;;;;;;;;;;16.30;99.90;;;;;;4988306;28;19918;-74
2022/08/22 04:03:45;;;;;;;;;;;16.30;99.90;;;;;;4992503;28;19929;-75
2022/08/22 04:06:10;;;;;;;;;;;16.40;99.90;;;;;;4992384;28;19922;-74
2022/08/22 04:08:45;;;;;;;;;;;16.40;99.90;;;;;;4994150;28;19917;-74
2022/08/22 04:11:38;;;;;;;;;;;16.40;99.90;;;;;;5009717;28;19922;-74
2022/08/22 04:14:03;;;;;;;;;;;16.40;99.90;;;;;;4993126;28;20003;-74
2022/08/22 04:16:44;;;;;;;;;;;16.50;99.90;;;;;;4994103;28;19953;-74
2022/08/22 04:19:28;;;;;;;;;;;16.60;99.90;;;;;;4992144;28;19917;-74
2022/08/22 04:22:08;;;;;;;;;;;16.60;99.90;;;;;;4993219;28;19938;-74
2022/08/22 04:24:55;;;;;;;;;;;16.50;99.90;;;;;;4990782;28;20029;-74
2022/08/22 04:27:41;;;;;;;;;;;16.50;99.90;;;;;;4993844;28;19921;-74
2022/08/22 04:30:23;;;;;;;;;;;16.50;99.90;;;;;;5018511;28;20312;-75
2022/08/22 04:33:15;;;;;;;;;;;16.60;99.90;;;;;;5034149;28;19921;-74
2022/08/22 04:35:51;;;;;;;;;;;16.60;99.90;;;;;;4973470;28;19919;-74
2022/08/22 04:38:21;;;;;;;;;;;16.60;99.90;;;;;;4973705;28;19920;-74
2022/08/22 04:40:49;;;;;;;;;;;16.60;99.90;;;;;;4972528;28;19914;-74
2022/08/22 04:43:26;;;;;;;;;;;16.70;99.90;;;;;;4971843;28;19925;-74
2022/08/22 04:46:01;;;;;;;;;;;16.70;99.90;;;;;;4972354;28;19925;-74
2022/08/22 04:48:27;;;;;;;;;;;16.70;99.90;;;;;;4973337;28;20012;-74
2022/08/22 04:50:55;;;;;;;;;;;16.70;99.90;;;;;;4973627;28;20056;-74
2022/08/22 04:53:39;;;;;;;;;;;16.70;99.90;;;;;;4973022;28;19914;-75
2022/08/22 04:56:25;;;;;;;;;;;16.70;99.90;;;;;;4957703;28;20045;-74
2022/08/22 04:58:58;;;;;;;;;;;16.70;99.90;;;;;;4958408;28;19918;-74
2022/08/22 05:01:25;;;;;;;;;;;16.70;99.90;;;;;;4954412;28;19917;-74
2022/08/22 05:03:59;;;;;;;;;;;16.80;99.90;;;;;;4983183;28;19972;-74
2022/08/22 05:06:25;;;;;;;;;;;16.80;99.90;;;;;;4977640;28;19964;-75
2022/08/22 05:08:52;;;;;;;;;;;16.80;99.90;;;;;;4992452;28;19914;-74
2022/08/22 05:11:18;;;;;;;;;;;16.90;99.90;;;;;;4992704;28;19960;-74
2022/08/22 05:13:47;;;;;;;;;;;16.90;99.90;;;;;;5028128;28;20205;-74
2022/08/22 05:16:14;;;;;;;;;;;16.90;99.90;;;;;;5008844;28;19940;-74
2022/08/22 05:18:48;;;;;;;;;;;17.00;99.90;;;;;;5013916;28;19971;-75
2022/08/22 05:21:15;;;;;;;;;;;17.00;99.90;;;;;;5032435;28;19913;-74
2022/08/22 05:24:01;;;;;;;;;;;17.00;99.90;;;;;;5028743;28;19928;-74
2022/08/22 05:26:28;;;;;;;;;;;17.00;99.90;;;;;;5032593;28;19929;-74
2022/08/22 05:28:57;;;;;;;;;;;17.10;99.90;;;;;;5031790;28;19921;-75
2022/08/22 05:31:28;;;;;;;;;;;17.10;99.90;;;;;;5013826;28;19921;-74
2022/08/22 05:33:58;;;;;;;;;;;17.20;99.90;;;;;;5031358;28;19920;-74
2022/08/22 05:36:26;;;;;;;;;;;17.20;99.90;;;;;;5033046;28;19921;-74
2022/08/22 05:38:55;;;;;;;;;;;17.20;99.90;;;;;;5031814;28;19913;-74
2022/08/22 05:41:22;;;;;;;;;;;17.30;99.90;;;;;;4998224;28;19917;-74
2022/08/22 05:43:49;;;;;;;;;;;17.20;99.90;;;;;;5031829;28;20763;-74
2022/08/22 05:46:20;;;;;;;;;;;17.40;99.90;;;;;;5033459;28;19948;-74
2022/08/22 05:48:51;;;;;;;;;;;17.40;99.90;;;;;;5014498;28;19917;-74
2022/08/22 05:51:22;;;;;;;;;;;17.40;99.90;;;;;;5032766;28;19921;-75
2022/08/22 05:53:52;;;;;;;;;;;17.50;99.90;;;;;;5031334;28;19917;-74
2022/08/22 05:56:23;;;;;;;;;;;17.50;99.90;;;;;;5030057;28;19917;-74
2022/08/22 05:59:01;;;;;;;;;;;17.60;99.90;;;;;;5032060;28;19970;-74
2022/08/22 06:01:41;;;;;;;;;;;17.60;99.90;;;;;;5032896;28;20047;-74
2022/08/22 06:04:12;;;;;;;;;;;17.70;99.90;;;;;;5043111;28;19929;-74
2022/08/22 06:06:41;;;;;;;;;;;17.70;99.90;;;;;;5051114;28;20366;-74
2022/08/22 06:09:12;;;;;;;;;;;17.80;99.90;;;;;;5052312;28;19931;-74
2022/08/22 06:11:41;;;;;;;;;;;17.80;99.90;;;;;;5046444;28;19921;-74
2022/08/22 06:14:13;;;;;;;;;;;17.90;99.90;;;;;;5051047;28;19917;-73
2022/08/22 06:16:48;;;;;;;;;;;17.90;99.90;;;;;;5050716;28;19930;-74
2022/08/22 06:19:16;;;;;;;;;;;18.00;99.90;;;;;;5048546;28;19913;-74
2022/08/22 06:21:43;;;;;;;;;;;18.00;99.90;;;;;;5050340;28;20363;-74
2022/08/22 06:24:13;;;;;;;;;;;18.10;99.90;;;;;;5051528;28;19921;-79
2022/08/22 06:26:42;;;;;;;;;;;18.10;99.90;;;;;;5052449;28;19916;-74
2022/08/22 06:29:08;;;;;;;;;;;18.20;99.90;;;;;;5051974;28;19928;-74
2022/08/22 06:31:43;;;;;;;;;;;18.20;99.90;;;;;;5034436;28;19925;-74
2022/08/22 06:34:16;;;;;;;;;;;18.20;99.90;;;;;;5049434;28;20228;-74
2022/08/22 06:36:44;;;;;;;;;;;18.20;99.90;;;;;;5053224;28;19921;-74
2022/08/22 06:39:22;;;;;;;;;;;18.30;99.90;;;;;;5051953;28;20003;-74
2022/08/22 06:41:48;;;;;;;;;;;18.30;99.90;;;;;;5035458;28;19948;-74
2022/08/22 06:44:15;;;;;;;;;;;18.30;99.90;;;;;;5052451;28;19975;-74
2022/08/22 06:46:43;;;;;;;;;;;18.30;99.90;;;;;;5051815;28;20000;-75
2022/08/22 06:49:08;;;;;;;;;;;18.40;99.90;;;;;;5050043;28;20383;-75
2022/08/22 06:51:36;;;;;;;;;;;18.40;99.90;;;;;;5052659;28;19996;-75
2022/08/22 06:54:02;;;;;;;;;;;18.40;99.90;;;;;;5051780;28;19920;-78
2022/08/22 06:56:34;;;;;;;;;;;18.50;99.90;;;;;;5050648;28;19913;-74
2022/08/22 06:59:01;;;;;;;;;;;18.50;99.90;;;;;;5048471;28;19917;-74
2022/08/22 07:01:34;;;;;;;;;;;18.60;99.90;;;;;;5050955;28;19967;-74
2022/08/22 07:04:04;;;;;;;;;;;18.70;99.90;;;;;;5050671;28;20015;-74
2022/08/22 07:06:33;;;;;;;;;;;18.80;99.90;;;;;;5049868;28;19921;-74
2022/08/22 07:08:59;;;;;;;;;;;18.90;99.90;;;;;;5033306;28;20347;-75
2022/08/22 07:11:27;;;;;;;;;;;19.00;99.90;;;;;;5052296;28;19955;-74
2022/08/22 07:13:55;;;;;;;;;;;19.10;99.90;;;;;;5052311;28;19916;-74
2022/08/22 07:16:31;;;;;;;;;;;19.20;99.90;;;;;;5050825;28;20247;-75
2022/08/22 07:18:58;;;;;;;;;;;19.30;99.90;;;;;;5050870;28;19920;-74
2022/08/22 07:21:28;;;;;;;;;;;19.40;99.90;;;;;;5051416;28;19948;-74
2022/08/22 07:23:54;;;;;;;;;;;19.50;99.90;;;;;;5050931;28;19971;-74
2022/08/22 07:26:19;;;;;;;;;;;19.60;99.90;;;;;;5049521;28;19920;-74
2022/08/22 07:28:48;;;;;;;;;;;19.60;99.90;;;;;;5031882;28;20023;-74
2022/08/22 07:31:16;;;;;;;;;;;19.80;99.90;;;;;;5034085;28;19917;-75
2022/08/22 07:33:45;;;;;;;;;;;20.00;99.90;;;;;;5034161;28;19920;-74
2022/08/22 07:36:19;;;;;;;;;;;20.50;99.90;;;;;;5050927;28;19924;-75
2022/08/22 07:39:18;;;;;;;;;;;20.80;99.90;;;;;;5051318;28;19921;-74
2022/08/22 07:42:01;;;;;;;;;;;21.20;99.90;;;;;;4979844;28;19913;-74
2022/08/22 07:44:47;;;;;;;;;;;21.20;99.90;;;;;;4974500;28;19921;-74
2022/08/22 07:47:15;;;;;;;;;;;21.30;99.90;;;;;;4989954;28;20216;-75
2022/08/22 07:49:47;;;;;;;;;;;21.30;99.90;;;;;;4991364;28;20004;-75
2022/08/22 07:52:13;;;;;;;;;;;21.60;99.90;;;;;;4988826;28;20351;-74
2022/08/22 07:54:41;;;;;;;;;;;21.80;99.90;;;;;;4987411;28;19918;-77
2022/08/22 07:57:11;;;;;;;;;;;21.80;99.90;;;;;;4988731;28;20101;-75
2022/08/22 07:59:38;;;;;;;;;;;21.70;99.90;;;;;;4990598;28;20407;-75
2022/08/22 08:02:05;;;;;;;;;;;21.70;99.90;;;;;;4971802;28;19917;-75
2022/08/22 08:04:33;;;;;;;;;;;21.80;99.90;;;;;;4974650;28;19929;-75
2022/08/22 08:07:00;;;;;;;;;;;21.70;99.90;;;;;;4973575;28;19921;-76
2022/08/22 08:09:28;;;;;;;;;;;21.60;99.90;;;;;;4972668;28;20270;-75
2022/08/22 08:11:53;;;;;;;;;;;21.70;99.90;;;;;;4974334;28;19968;-76
2022/08/22 08:14:20;;;;;;;;;;;22.00;99.90;;;;;;4957590;28;20313;-75
2022/08/22 08:16:51;;;;;;;;;;;22.00;99.90;;;;;;4988076;28;20201;-75
2022/08/22 08:19:18;;;;;;;;;;;22.10;99.90;;;;;;5035262;28;20003;-75
2022/08/22 08:21:49;;;;;;;;;;;22.10;99.90;;;;;;5047915;28;19913;-75
2022/08/22 08:24:19;;;;;;;;;;;22.20;99.90;;;;;;5032048;28;20216;-75
2022/08/22 08:29:35;;;;;;;;;;;22.30;99.90;;;;;;5035819;28;19951;-74
2022/08/22 08:32:03;;;;;;;;;;;22.50;99.90;;;;;;5019125;28;19913;-75
2022/08/22 08:34:31;;;;;;;;;;;22.80;99.90;;;;;;5034757;28;20193;-75
2022/08/22 08:36:59;;;;;;;;;;;23.10;99.90;;;;;;5036291;28;20274;-76
2022/08/22 08:39:51;;;;;;;;;;;23.00;99.90;;;;;;5014834;28;19921;-75
2022/08/22 08:42:20;;;;;;;;;;;23.20;99.90;;;;;;5034459;28;20004;-75
2022/08/22 08:44:55;;;;;;;;;;;23.40;99.90;;;;;;5035597;28;20327;-76
2022/08/22 08:47:39;;;;;;;;;;;23.70;99.90;;;;;;5036317;28;19913;-76
2022/08/22 08:50:07;;;;;;;;;;;23.80;99.90;;;;;;5032667;28;19963;-75
2022/08/22 08:52:50;;;;;;;;;;;24.10;99.90;;;;;;5017847;28;19917;-76
2022/08/22 08:55:51;;;;;;;;;;;23.90;99.90;;;;;;5034007;28;19917;-76
2022/08/22 08:58:30;;;;;;;;;;;23.90;99.90;;;;;;4967749;28;19962;-75
2022/08/22 09:01:10;;;;;;;;;;;23.60;99.90;;;;;;5026450;28;19913;-76
2022/08/22 09:03:56;;;;;;;;;;;23.70;99.90;;;;;;5037283;28;20015;-74
2022/08/22 09:06:40;;;;;;;;;;;23.50;99.90;;;;;;4955437;28;19961;-75
2022/08/22 09:09:08;;;;;;;;;;;23.50;99.90;;;;;;4970942;28;19918;-75
2022/08/22 09:11:52;;;;;;;;;;;23.50;99.90;;;;;;4971745;28;20278;-75
2022/08/22 09:14:21;;;;;;;;;;;23.80;99.90;;;;;;4973194;28;19914;-75
2022/08/22 09:16:52;;;;;;;;;;;24.30;99.90;;;;;;4962998;28;19961;-76
2022/08/22 09:19:25;;;;;;;;;;;24.40;99.90;;;;;;4959275;28;19922;-77
2022/08/22 09:21:57;;;;;;;;;;;24.50;99.90;;;;;;4971989;28;20322;-76
2022/08/22 09:24:22;;;;;;;;;;;24.50;99.90;;;;;;4971860;28;19918;-75
2022/08/22 09:26:48;;;;;;;;;;;24.60;99.90;;;;;;4971451;28;20376;-76
2022/08/22 09:29:29;;;;;;;;;;;24.50;99.90;;;;;;4972317;28;19961;-77
2022/08/22 09:32:02;;;;;;;;;;;24.50;99.90;;;;;;4971653;28;19925;-75
2022/08/22 09:34:43;;;;;;;;;;;24.90;99.90;;;;;;4956984;28;19922;-78
2022/08/22 09:37:15;;;;;;;;;;;24.70;99.90;;;;;;4971634;28;20057;-74
2022/08/22 09:39:58;;;;;;;;;;;24.30;99.90;;;;;;4974382;28;19932;-75
2022/08/22 09:42:40;;;;;;;;;;;24.10;99.90;;;;;;4978202;28;19969;-75
2022/08/22 09:45:06;;;;;;;;;;;24.40;99.90;;;;;;5052197;28;20304;-76
2022/08/22 09:47:38;;;;;;;;;;;25.00;99.90;;;;;;5034381;28;19970;-76
2022/08/22 09:50:04;;;;;;;;;;;25.40;99.90;;;;;;5052536;28;19921;-78
2022/08/22 09:52:48;;;;;;;;;;;25.80;99.90;;;;;;5054094;28;19939;-75
2022/08/22 09:55:27;;;;;;;;;;;25.80;99.20;;;;;;5035931;28;20193;-75
2022/08/22 09:58:24;;;;;;;;;;;25.80;99.70;;;;;;5052196;28;19913;-75
2022/08/22 10:00:55;;;;;;;;;;;26.10;99.90;;;;;;5036198;28;19916;-76
2022/08/22 10:03:31;;;;;;;;;;;25.70;99.10;;;;;;5052421;28;20268;-75
2022/08/22 10:06:02;;;;;;;;;;;25.50;99.90;;;;;;5052941;28;19979;-76
2022/08/22 10:08:35;;;;;;;;;;;25.70;99.90;;;;;;5054844;28;19932;-75
2022/08/22 10:11:19;;;;;;;;;;;25.80;99.90;;;;;;5050731;28;19962;-77
2022/08/22 10:13:54;;;;;;;;;;;25.70;99.40;;;;;;5051785;28;19916;-75
2022/08/22 10:16:46;;;;;;;;;;;25.60;99.90;;;;;;5034530;28;19943;-75
2022/08/22 10:19:30;;;;;;;;;;;25.70;99.90;;;;;;5040698;28;19917;-76
2022/08/22 10:22:09;;;;;;;;;;;26.00;99.90;;;;;;5044397;28;19959;-76
2022/08/22 10:24:41;;;;;;;;;;;26.20;99.00;;;;;;5048980;28;20383;-75
2022/08/22 10:27:12;;;;;;;;;;;25.70;99.90;;;;;;5036282;28;19909;-75
2022/08/22 10:29:56;;;;;;;;;;;25.90;99.90;;;;;;5032412;28;19909;-76
2022/08/22 10:32:40;;;;;;;;;;;25.40;99.10;;;;;;5034878;28;19917;-75
2022/08/22 10:35:20;;;;;;;;;;;25.00;99.90;;;;;;5035107;28;19912;-75
2022/08/22 10:38:15;;;;;;;;;;;25.10;99.90;;;;;;5034690;28;20249;-75
2022/08/22 10:40:47;;;;;;;;;;;25.40;99.90;;;;;;5037884;28;19917;-75
2022/08/22 10:43:12;;;;;;;;;;;25.40;99.90;;;;;;5051385;28;19940;-76
2022/08/22 10:45:43;;;;;;;;;;;25.20;99.90;;;;;;5034908;28;20222;-75
2022/08/22 10:48:09;;;;;;;;;;;25.00;99.90;;;;;;5033978;28;19924;-75
2022/08/22 10:50:48;;;;;;;;;;;25.00;99.90;;;;;;5050832;28;19920;-75
2022/08/22 10:53:29;;;;;;;;;;;24.90;99.90;;;;;;5033192;28;19948;-74
2022/08/22 10:56:07;;;;;;;;;;;25.10;99.90;;;;;;5034797;28;19917;-75
2022/08/22 10:58:35;;;;;;;;;;;24.90;99.90;;;;;;5033478;28;19917;-75
2022/08/22 11:01:02;;;;;;;;;;;24.50;99.90;;;;;;5035232;28;19920;-75
2022/08/22 11:03:46;;;;;;;;;;;24.50;99.90;;;;;;5034743;28;19948;-75
2022/08/22 11:06:16;;;;;;;;;;;24.40;99.90;;;;;;5046133;28;20382;-78
2022/08/22 11:08:59;;;;;;;;;;;24.70;99.90;;;;;;5049348;28;20024;-75
2022/08/22 11:11:52;;;;;;;;;;;25.20;99.40;;;;;;5050365;28;19924;-75
2022/08/22 11:14:21;;;;;;;;;;;25.60;98.40;;;;;;5047481;28;19996;-78
2022/08/22 11:17:01;;;;;;;;;;;25.70;98.00;;;;;;5031159;28;20450;-75
2022/08/22 11:19:37;;;;;;;;;;;26.00;97.50;;;;;;5033592;28;19982;-76
2022/08/22 11:22:21;;;;;;;;;;;26.10;97.00;;;;;;5051426;28;19943;-75
2022/08/22 11:24:59;;;;;;;;;;;26.20;97.30;;;;;;5031529;28;19924;-78
2022/08/22 11:27:43;;;;;;;;;;;26.30;97.70;;;;;;5063560;28;19934;-76
2022/08/22 11:30:10;;;;;;;;;;;25.90;98.20;;;;;;5050898;28;19944;-76
2022/08/22 11:32:55;;;;;;;;;;;25.50;97.50;;;;;;5017738;28;19923;-76
2022/08/22 11:35:23;;;;;;;;;;;25.50;98.30;;;;;;5039031;28;19921;-77
2022/08/22 11:37:48;;;;;;;;;;;25.50;98.00;;;;;;5032637;28;19947;-75
2022/08/22 11:40:18;;;;;;;;;;;25.10;98.20;;;;;;5036792;28;19912;-76
2022/08/22 11:43:09;;;;;;;;;;;24.80;99.00;;;;;;5037061;28;20054;-77
2022/08/22 11:45:52;;;;;;;;;;;24.60;99.90;;;;;;5015601;28;19917;-76
2022/08/22 11:48:35;;;;;;;;;;;24.40;99.90;;;;;;5052308;28;19989;-75
2022/08/22 11:51:10;;;;;;;;;;;24.10;99.70;;;;;;5054784;28;19925;-75
2022/08/22 11:53:38;;;;;;;;;;;24.00;99.90;;;;;;5053151;28;19917;-76
2022/08/22 11:56:26;;;;;;;;;;;24.30;99.90;;;;;;5051712;28;20058;-76
2022/08/22 11:59:09;;;;;;;;;;;24.70;99.50;;;;;;5053040;28;19917;-76
2022/08/22 12:01:53;;;;;;;;;;;25.00;99.00;;;;;;5054381;28;19917;-74
2022/08/22 12:04:19;;;;;;;;;;;25.10;99.70;;;;;;5032107;28;19925;-76
2022/08/22 12:06:47;;;;;;;;;;;24.80;98.90;;;;;;5035313;28;20194;-76
2022/08/22 12:09:16;;;;;;;;;;;24.50;99.80;;;;;;5032668;28;19932;-75
2022/08/22 12:11:58;;;;;;;;;;;24.50;99.60;;;;;;5028960;28;19924;-75
2022/08/22 12:14:32;;;;;;;;;;;24.70;98.90;;;;;;5032888;28;19913;-75
2022/08/22 12:17:20;;;;;;;;;;;25.10;99.40;;;;;;5030453;28;19923;-77
2022/08/22 12:19:45;;;;;;;;;;;25.60;99.60;;;;;;5029903;28;19917;-75
2022/08/22 12:22:29;;;;;;;;;;;25.90;97.40;;;;;;5034166;28;20047;-76
2022/08/22 12:25:14;;;;;;;;;;;25.90;98.70;;;;;;5028004;28;20212;-77
2022/08/22 12:27:44;;;;;;;;;;;25.60;97.80;;;;;;5030435;28;19917;-76
2022/08/22 12:30:32;;;;;;;;;;;25.40;98.90;;;;;;5033193;28;19998;-75
2022/08/22 12:33:13;;;;;;;;;;;25.70;98.70;;;;;;5026385;28;19928;-76
2022/08/22 12:35:39;;;;;;;;;;;25.70;98.00;;;;;;5060495;28;20008;-75
2022/08/22 12:38:23;;;;;;;;;;;25.90;98.20;;;;;;5029855;28;20003;-76
2022/08/22 12:41:10;;;;;;;;;;;25.90;98.20;;;;;;5027623;28;20233;-75
2022/08/22 12:43:38;;;;;;;;;;;25.80;97.10;;;;;;5033827;28;20369;-75
2022/08/22 12:46:22;;;;;;;;;;;25.40;97.60;;;;;;5033323;28;19917;-75
2022/08/22 12:49:14;;;;;;;;;;;25.40;98.10;;;;;;5034148;28;19963;-78
2022/08/22 12:51:58;;;;;;;;;;;25.40;97.90;;;;;;5007262;28;20715;-75
2022/08/22 12:54:42;;;;;;;;;;;25.60;98.10;;;;;;5026778;28;20301;-75
2022/08/22 12:57:08;;;;;;;;;;;25.90;98.30;;;;;;5049068;28;19920;-75
2022/08/22 12:59:36;;;;;;;;;;;25.80;97.90;;;;;;5034466;28;19913;-76
2022/08/22 13:02:12;;;;;;;;;;;26.00;98.00;;;;;;5029177;28;19913;-76
2022/08/22 13:04:44;;;;;;;;;;;25.90;96.70;;;;;;5034575;28;20248;-76
2022/08/22 13:07:24;;;;;;;;;;;25.60;97.40;;;;;;5035590;28;19917;-75
2022/08/22 13:10:12;;;;;;;;;;;25.50;97.30;;;;;;5039685;28;20351;-76
2022/08/22 13:12:42;;;;;;;;;;;25.70;97.70;;;;;;5047433;28;19917;-78
2022/08/22 13:15:20;;;;;;;;;;;25.70;97.70;;;;;;5050990;28;20004;-76
2022/08/22 13:17:46;;;;;;;;;;;25.70;97.50;;;;;;5033643;28;20209;-75
2022/08/22 13:20:19;;;;;;;;;;;25.50;96.90;;;;;;5052951;28;19920;-75
2022/08/22 13:22:45;;;;;;;;;;;25.40;97.00;;;;;;5053064;28;20011;-76
2022/08/22 13:25:16;;;;;;;;;;;25.20;96.60;;;;;;5051655;28;20039;-75
2022/08/22 13:27:47;;;;;;;;;;;25.40;97.40;;;;;;5053039;28;19909;-75
2022/08/22 13:30:21;;;;;;;;;;;25.50;98.00;;;;;;5036641;28;19917;-75
2022/08/22 13:32:51;;;;;;;;;;;25.40;98.60;;;;;;5053929;28;19912;-75
2022/08/22 13:35:29;;;;;;;;;;;25.50;98.60;;;;;;5051603;28;19970;-76
2022/08/22 13:38:01;;;;;;;;;;;25.70;96.70;;;;;;5051406;28;19963;-76
2022/08/22 13:40:28;;;;;;;;;;;25.90;97.70;;;;;;5051809;28;19955;-74
2022/08/22 13:43:00;;;;;;;;;;;25.90;97.80;;;;;;5048723;28;19931;-76
2022/08/22 13:45:27;;;;;;;;;;;25.70;96.80;;;;;;5051916;28;20219;-77
2022/08/22 13:47:55;;;;;;;;;;;25.70;97.40;;;;;;5050279;28;19939;-75
2022/08/22 13:50:22;;;;;;;;;;;25.90;96.20;;;;;;5050976;28;19947;-75
2022/08/22 13:52:54;;;;;;;;;;;26.20;98.40;;;;;;5052380;28;19963;-77
2022/08/22 13:55:25;;;;;;;;;;;26.10;96.90;;;;;;5048816;28;20338;-75
2022/08/22 13:57:53;;;;;;;;;;;26.10;97.30;;;;;;5032819;28;19919;-77
2022/08/22 14:00:28;;;;;;;;;;;26.10;97.70;;;;;;5049783;28;20212;-77
2022/08/22 14:03:04;;;;;;;;;;;26.10;97.10;;;;;;5052042;28;19939;-76
2022/08/22 14:05:32;;;;;;;;;;;26.20;96.00;;;;;;5033024;28;19929;-76
2022/08/22 14:08:18;;;;;;;;;;;26.50;96.20;;;;;;5033405;28;19921;-76
2022/08/22 14:10:56;;;;;;;;;;;26.60;95.40;;;;;;5016001;28;19968;-77
2022/08/22 14:13:41;;;;;;;;;;;26.60;96.00;;;;;;5043052;28;20343;-77
2022/08/22 14:16:10;;;;;;;;;;;26.30;96.50;;;;;;5045749;28;19939;-76
2022/08/22 14:18:38;;;;;;;;;;;26.30;96.50;;;;;;5026976;28;20254;-77
2022/08/22 14:21:15;;;;;;;;;;;26.20;95.40;;;;;;5025358;28;20205;-76
2022/08/22 14:23:41;;;;;;;;;;;26.20;95.80;;;;;;5041706;28;20300;-76
2022/08/22 14:26:07;;;;;;;;;;;26.20;96.20;;;;;;5045942;28;19917;-76
2022/08/22 14:28:34;;;;;;;;;;;26.40;96.30;;;;;;5042077;28;20230;-76
2022/08/22 14:30:59;;;;;;;;;;;26.40;97.00;;;;;;5043732;28;19931;-76
2022/08/22 14:33:37;;;;;;;;;;;26.30;97.90;;;;;;5044937;28;19920;-77
2022/08/22 14:36:10;;;;;;;;;;;26.20;98.30;;;;;;5045623;28;19917;-76
2022/08/22 14:38:42;;;;;;;;;;;25.90;96.80;;;;;;5045215;28;19919;-75
2022/08/22 14:41:20;;;;;;;;;;;25.90;97.50;;;;;;5048585;28;19917;-77
2022/08/22 14:43:55;;;;;;;;;;;25.80;97.50;;;;;;5048828;28;19959;-75
2022/08/22 14:46:44;;;;;;;;;;;25.90;97.30;;;;;;5032076;28;19939;-77
2022/08/22 14:49:27;;;;;;;;;;;26.00;96.70;;;;;;5025047;28;19921;-77
2022/08/22 14:52:00;;;;;;;;;;;26.20;97.20;;;;;;5032736;28;19935;-79
2022/08/22 14:54:26;;;;;;;;;;;26.20;97.30;;;;;;5034299;28;19960;-82
2022/08/22 14:56:53;;;;;;;;;;;26.20;97.10;;;;;;5050659;28;19925;-78
2022/08/22 14:59:31;;;;;;;;;;;26.30;96.60;;;;;;5052415;28;19948;-80
2022/08/22 15:02:13;;;;;;;;;;;26.30;96.70;;;;;;5034812;28;19923;-85
2022/08/22 15:04:41;;;;;;;;;;;26.10;97.20;;;;;;5049583;28;19956;-80